Terminal Aerodrome Forecast
Issued by NWS

Home | Current Version | Previous Version | Text Only | Print | Product List | Glossary On
Versions: 1 2 3 4 5 6 7 8 9 10 11 12 13 14 15 16 17
759
FTUS43 KIND 060554
TAFBMG
TAF
KBMG 060554Z 0606/0706 VRB02KT P6SM SKC
     FM061800 33007KT P6SM SCT100
     FM070000 28004KT P6SM SCT100
     FM070400 24004KT P6SM SCT100
      AMD LTD TO CLD WIND AND VIS TIL 061300=

USA.gov is the U.S. government's official web portal to all federal, state and local government web resources and services.